createdAt,value
2017-11-11T00:00:03.123Z,920.67
2017-11-11T00:00:16.684Z,920.59
2017-11-11T00:00:29.606Z,920.61
2017-11-11T00:00:42.591Z,920.64
2017-11-11T00:00:55.486Z,920.62
2017-11-11T00:01:08.979Z,920.6
2017-11-11T00:01:22.474Z,920.58
2017-11-11T00:01:35.985Z,920.57
2017-11-11T00:01:49.529Z,920.58
2017-11-11T00:02:03.013Z,920.55
2017-11-11T00:02:16.502Z,920.56
2017-11-11T00:02:29.452Z,920.52
2017-11-11T00:02:42.946Z,920.52
2017-11-11T00:02:56.507Z,920.51
2017-11-11T00:03:10.006Z,920.47
2017-11-11T00:03:23.005Z,920.51
2017-11-11T00:03:35.920Z,920.51
2017-11-11T00:03:49.406Z,920.45
2017-11-11T00:04:02.400Z,920.5
2017-11-11T00:04:15.362Z,920.48
2017-11-11T00:04:28.364Z,920.48
2017-11-11T00:04:41.845Z,920.49
2017-11-11T00:04:55.381Z,920.47
2017-11-11T00:05:08.820Z,920.45
2017-11-11T00:05:21.749Z,920.41
2017-11-11T00:05:35.215Z,920.43
2017-11-11T00:05:48.221Z,920.36
2017-11-11T00:06:01.310Z,920.39
2017-11-11T00:06:14.294Z,920.39
2017-11-11T00:06:27.851Z,920.35
2017-11-11T00:06:40.749Z,920.37
2017-11-11T00:06:54.213Z,920.33
2017-11-11T00:07:07.744Z,920.32
2017-11-11T00:07:21.155Z,920.32
2017-11-11T00:07:34.624Z,920.31
2017-11-11T00:07:48.079Z,920.24
2017-11-11T00:08:01.608Z,920.28
2017-11-11T00:08:14.579Z,920.27
2017-11-11T00:08:26.936Z,920.25
2017-11-11T00:08:39.887Z,920.26
2017-11-11T00:08:53.369Z,920.25
2017-11-11T00:09:06.838Z,920.24
2017-11-11T00:09:20.254Z,920.23
2017-11-11T00:09:33.808Z,920.2
2017-11-11T00:09:47.518Z,920.25
2017-11-11T00:10:01.076Z,920.25
2017-11-11T00:10:14.000Z,920.24
2017-11-11T00:10:27.517Z,920.24
2017-11-11T00:10:40.424Z,920.27
2017-11-11T00:10:53.990Z,920.29
2017-11-11T00:11:06.919Z,920.32
2017-11-11T00:11:20.417Z,920.32
2017-11-11T00:11:33.889Z,920.3
2017-11-11T00:11:47.416Z,920.27
2017-11-11T00:12:00.844Z,920.28
2017-11-11T00:12:13.777Z,920.32
2017-11-11T00:12:27.280Z,920.31
2017-11-11T00:12:40.777Z,920.34
2017-11-11T00:12:53.810Z,920.32
2017-11-11T00:13:07.253Z,920.35
2017-11-11T00:13:20.779Z,920.32
2017-11-11T00:13:33.715Z,920.32
2017-11-11T00:13:46.642Z,920.33
2017-11-11T00:14:00.098Z,920.36
2017-11-11T00:14:13.506Z,920.37
2017-11-11T00:14:25.897Z,920.35
2017-11-11T00:14:39.378Z,920.37
2017-11-11T00:14:52.889Z,920.39
2017-11-11T00:15:06.330Z,920.39
2017-11-11T00:15:19.236Z,920.43
2017-11-11T00:15:32.678Z,920.43
2017-11-11T00:15:46.147Z,920.45
2017-11-11T00:15:58.495Z,920.46
2017-11-11T00:16:11.403Z,920.46
2017-11-11T00:16:24.893Z,920.46
2017-11-11T00:16:38.380Z,920.44
2017-11-11T00:16:51.936Z,920.46
2017-11-11T00:17:05.407Z,920.45
2017-11-11T00:17:18.942Z,920.44
2017-11-11T00:17:31.242Z,920.42
2017-11-11T00:17:44.735Z,920.42
2017-11-11T00:17:58.311Z,920.44
2017-11-11T00:18:11.761Z,920.46
2017-11-11T00:18:25.264Z,920.47
2017-11-11T00:18:38.245Z,920.5
2017-11-11T00:18:51.798Z,920.53
2017-11-11T00:19:05.296Z,920.51
2017-11-11T00:19:18.244Z,920.5
2017-11-11T00:19:31.698Z,920.5
2017-11-11T00:19:45.208Z,920.54
2017-11-11T00:19:58.677Z,920.53
2017-11-11T00:20:11.538Z,920.51
2017-11-11T00:20:24.985Z,920.54
2017-11-11T00:20:37.940Z,920.52
2017-11-11T00:20:51.431Z,920.56
2017-11-11T00:21:05.647Z,920.56
2017-11-11T00:21:19.137Z,920.58
2017-11-11T00:21:32.102Z,920.59
2017-11-11T00:21:45.665Z,920.6
2017-11-11T00:21:58.580Z,920.62
2017-11-11T00:22:12.098Z,920.61
2017-11-11T00:22:25.032Z,920.62
2017-11-11T00:22:37.455Z,920.64
2017-11-11T00:22:50.859Z,920.67
2017-11-11T00:23:03.870Z,920.68
2017-11-11T00:23:17.310Z,920.68
2017-11-11T00:23:29.147Z,920.7
2017-11-11T00:23:42.112Z,920.7
2017-11-11T00:23:55.642Z,920.72
2017-11-11T00:24:09.119Z,920.74
2017-11-11T00:24:22.026Z,920.74
2017-11-11T00:24:34.964Z,920.76
2017-11-11T00:24:48.415Z,920.73
2017-11-11T00:25:01.878Z,920.8
2017-11-11T00:25:15.352Z,920.78
2017-11-11T00:25:28.303Z,920.8
2017-11-11T00:25:41.827Z,920.82
2017-11-11T00:25:55.359Z,920.82
2017-11-11T00:26:07.716Z,920.83
2017-11-11T00:26:21.143Z,920.8
2017-11-11T00:26:34.739Z,920.79
2017-11-11T00:26:47.798Z,920.81
2017-11-11T00:27:01.287Z,920.81
2017-11-11T00:27:14.787Z,920.84
2017-11-11T00:27:27.144Z,920.81
2017-11-11T00:27:40.630Z,920.79
2017-11-11T00:27:54.076Z,920.81
2017-11-11T00:28:07.597Z,920.83
2017-11-11T00:28:21.163Z,920.82
2017-11-11T00:28:34.637Z,920.83
2017-11-11T00:28:48.089Z,920.79
2017-11-11T00:29:01.108Z,920.83
2017-11-11T00:29:16.021Z,920.84
2017-11-11T00:29:28.425Z,920.85
2017-11-11T00:29:41.421Z,920.83
2017-11-11T00:29:54.997Z,920.87
2017-11-11T00:30:08.486Z,920.83
2017-11-11T00:30:21.962Z,920.85
2017-11-11T00:30:34.938Z,920.86
2017-11-11T00:30:47.913Z,920.84
2017-11-11T00:31:01.474Z,920.83
2017-11-11T00:31:14.415Z,920.85
2017-11-11T00:31:27.864Z,920.84
2017-11-11T00:31:41.446Z,920.87
2017-11-11T00:31:54.922Z,920.84
2017-11-11T00:32:08.386Z,920.8
2017-11-11T00:32:22.023Z,920.82
2017-11-11T00:32:35.477Z,920.81
2017-11-11T00:32:48.964Z,920.77
2017-11-11T00:33:02.493Z,920.8
2017-11-11T00:33:15.930Z,920.76
2017-11-11T00:33:29.405Z,920.77
2017-11-11T00:33:42.807Z,920.75
2017-11-11T00:33:55.773Z,920.73
2017-11-11T00:34:08.207Z,920.75
2017-11-11T00:34:21.709Z,920.74
2017-11-11T00:34:35.208Z,920.7
2017-11-11T00:34:48.172Z,920.7
2017-11-11T00:35:01.644Z,920.68
2017-11-11T00:35:15.122Z,920.68
2017-11-11T00:35:28.144Z,920.67
2017-11-11T00:35:40.531Z,920.71
2017-11-11T00:35:53.431Z,920.71
2017-11-11T00:36:06.973Z,920.7
2017-11-11T00:36:20.713Z,920.7
2017-11-11T00:36:33.689Z,920.67
2017-11-11T00:36:46.072Z,920.69
2017-11-11T00:36:59.033Z,920.67
2017-11-11T00:37:12.527Z,920.71
2017-11-11T00:37:25.486Z,920.73
2017-11-11T00:37:38.915Z,920.69
2017-11-11T00:37:51.819Z,920.68
2017-11-11T00:38:05.318Z,920.71
2017-11-11T00:38:18.893Z,920.69
2017-11-11T00:38:31.817Z,920.68
2017-11-11T00:38:44.787Z,920.7
2017-11-11T00:38:58.259Z,920.68
2017-11-11T00:39:11.792Z,920.68
2017-11-11T00:39:25.348Z,920.67
2017-11-11T00:39:38.760Z,920.68
2017-11-11T00:39:51.679Z,920.7
2017-11-11T00:40:05.160Z,920.71
2017-11-11T00:40:18.645Z,920.67
2017-11-11T00:40:32.121Z,920.71
2017-11-11T00:40:45.097Z,920.7
2017-11-11T00:40:58.559Z,920.7
2017-11-11T00:41:11.593Z,920.7
2017-11-11T00:41:25.086Z,920.72
2017-11-11T00:41:37.963Z,920.68
2017-11-11T00:41:50.308Z,920.7
2017-11-11T00:42:03.841Z,920.69
2017-11-11T00:42:17.336Z,920.65
2017-11-11T00:42:30.299Z,920.7
2017-11-11T00:42:43.790Z,920.68
2017-11-11T00:42:57.320Z,920.73
2017-11-11T00:43:10.871Z,920.72
2017-11-11T00:43:23.838Z,920.73
2017-11-11T00:43:37.410Z,920.75
2017-11-11T00:43:49.791Z,920.76
2017-11-11T00:44:03.316Z,920.8
2017-11-11T00:44:16.787Z,920.8
2017-11-11T00:44:29.786Z,920.8
2017-11-11T00:44:43.342Z,920.84
2017-11-11T00:44:56.293Z,920.84
2017-11-11T00:45:09.809Z,920.88
2017-11-11T00:45:23.286Z,920.9
2017-11-11T00:45:36.341Z,920.91
2017-11-11T00:45:49.885Z,920.91
2017-11-11T00:46:02.323Z,920.94
2017-11-11T00:46:15.886Z,920.97
2017-11-11T00:46:28.231Z,920.95
2017-11-11T00:46:41.231Z,920.95
2017-11-11T00:46:54.734Z,920.99
2017-11-11T00:47:08.209Z,920.99
2017-11-11T00:47:21.196Z,921.01
2017-11-11T00:47:34.656Z,921.01
2017-11-11T00:47:48.190Z,921.04
2017-11-11T00:48:01.630Z,921.08
2017-11-11T00:48:15.192Z,921.08
2017-11-11T00:48:28.166Z,921.1
2017-11-11T00:48:41.703Z,921.09
2017-11-11T00:48:55.212Z,921.1
2017-11-11T00:49:08.670Z,921.12
2017-11-11T00:49:22.208Z,921.13
2017-11-11T00:49:35.176Z,921.13
2017-11-11T00:49:48.616Z,921.11
2017-11-11T00:50:02.176Z,921.16
2017-11-11T00:50:15.103Z,921.12
2017-11-11T00:50:28.630Z,921.16
2017-11-11T00:50:41.582Z,921.16
2017-11-11T00:50:54.574Z,921.18
2017-11-11T00:51:07.531Z,921.17
2017-11-11T00:51:21.781Z,921.21
2017-11-11T00:51:35.345Z,921.19
2017-11-11T00:51:48.921Z,921.2
2017-11-11T00:52:00.768Z,921.22
2017-11-11T00:52:13.165Z,921.24
2017-11-11T00:52:25.674Z,921.22
2017-11-11T00:52:39.160Z,921.23
2017-11-11T00:52:52.717Z,921.23
2017-11-11T00:53:06.231Z,921.23
2017-11-11T00:53:19.748Z,921.27
2017-11-11T00:53:32.727Z,921.25
2017-11-11T00:53:46.191Z,921.26
2017-11-11T00:53:58.561Z,921.29
2017-11-11T00:54:12.026Z,921.3
2017-11-11T00:54:25.513Z,921.31
2017-11-11T00:54:38.992Z,921.29
2017-11-11T00:54:52.458Z,921.32
2017-11-11T00:55:05.961Z,921.33
2017-11-11T00:55:18.953Z,921.31
2017-11-11T00:55:31.320Z,921.35
2017-11-11T00:55:44.367Z,921.33
2017-11-11T00:55:57.861Z,921.39
2017-11-11T00:56:11.314Z,921.39
2017-11-11T00:56:24.803Z,921.44
2017-11-11T00:56:37.778Z,921.47
2017-11-11T00:56:51.259Z,921.49
2017-11-11T00:57:04.707Z,921.53
2017-11-11T00:57:17.631Z,921.58
2017-11-11T00:57:31.050Z,921.62
2017-11-11T00:57:44.038Z,921.66
2017-11-11T00:57:57.548Z,921.69
2017-11-11T00:58:11.032Z,921.76
2017-11-11T00:58:24.506Z,921.79
2017-11-11T00:58:37.437Z,921.85
2017-11-11T00:58:50.923Z,921.9
2017-11-11T00:59:04.412Z,921.95
2017-11-11T00:59:17.331Z,922.02
2017-11-11T00:59:30.783Z,922.09
2017-11-11T00:59:44.230Z,922.1
2017-11-11T00:59:57.098Z,922.13
2017-11-11T01:00:10.605Z,922.2
2017-11-11T01:00:23.025Z,922.24
2017-11-11T01:00:36.036Z,922.21
2017-11-11T01:00:48.942Z,922.31
2017-11-11T01:01:02.429Z,922.36
2017-11-11T01:01:15.903Z,922.35
2017-11-11T01:01:29.673Z,922.41
2017-11-11T01:01:43.125Z,922.44
2017-11-11T01:01:56.602Z,922.44
2017-11-11T01:02:10.152Z,922.41
2017-11-11T01:02:23.597Z,922.43
2017-11-11T01:02:37.061Z,922.39
2017-11-11T01:02:50.546Z,922.38
2017-11-11T01:03:04.087Z,922.37
2017-11-11T01:03:17.556Z,922.39
2017-11-11T01:03:31.100Z,922.34
2017-11-11T01:03:44.011Z,922.37
2017-11-11T01:03:57.499Z,922.35
2017-11-11T01:04:10.999Z,922.31
2017-11-11T01:04:23.955Z,922.31
2017-11-11T01:04:37.444Z,922.28
2017-11-11T01:04:50.890Z,922.3
2017-11-11T01:05:03.832Z,922.34
2017-11-11T01:05:17.465Z,922.37
2017-11-11T01:05:30.332Z,922.39
2017-11-11T01:05:42.661Z,922.35
2017-11-11T01:05:56.103Z,922.4
2017-11-11T01:06:09.529Z,922.34
2017-11-11T01:06:22.973Z,922.43
2017-11-11T01:06:36.440Z,922.44
2017-11-11T01:06:49.945Z,922.46
2017-11-11T01:07:03.448Z,922.45
2017-11-11T01:07:17.045Z,922.45
2017-11-11T01:07:29.991Z,922.53
2017-11-11T01:07:42.869Z,922.41
2017-11-11T01:07:56.330Z,922.4
2017-11-11T01:08:09.296Z,922.47
2017-11-11T01:08:22.239Z,922.42
2017-11-11T01:08:35.687Z,922.65
2017-11-11T01:08:48.559Z,922.62
2017-11-11T01:09:01.532Z,922.47
2017-11-11T01:09:14.990Z,922.52
2017-11-11T01:09:28.439Z,922.48
2017-11-11T01:09:41.952Z,922.52
2017-11-11T01:09:55.413Z,922.53
2017-11-11T01:10:08.444Z,922.62
2017-11-11T01:10:21.970Z,922.56
2017-11-11T01:10:36.186Z,922.64
2017-11-11T01:10:49.178Z,922.59
2017-11-11T01:11:02.631Z,922.67
2017-11-11T01:11:15.558Z,922.59
2017-11-11T01:11:28.466Z,922.66
2017-11-11T01:11:40.825Z,922.92
2017-11-11T01:11:54.339Z,922.86
2017-11-11T01:12:07.798Z,923.02
2017-11-11T01:12:21.245Z,922.89
2017-11-11T01:12:34.739Z,922.71
2017-11-11T01:12:48.247Z,922.76
2017-11-11T01:13:01.783Z,922.9
